createdAt,value
2023-03-07T00:00:48.061Z,3.70
2023-03-07T00:06:00.597Z,4.07
2023-03-07T00:08:27.929Z,3.93
2023-03-07T00:10:56.521Z,3.93
2023-03-07T00:17:14.016Z,4.13
2023-03-07T00:19:42.459Z,3.70
2023-03-07T00:22:09.839Z,4.80
2023-03-07T00:24:37.051Z,3.50
2023-03-07T00:27:06.121Z,3.03
2023-03-07T00:29:33.347Z,3.50
2023-03-07T00:32:10.006Z,4.00
2023-03-07T00:34:37.348Z,4.57
2023-03-07T00:37:04.596Z,3.93
2023-03-07T00:39:31.860Z,4.00
2023-03-07T00:42:06.163Z,5.20
2023-03-07T00:44:57.266Z,4.80
2023-03-07T00:47:43.000Z,3.80
2023-03-07T00:50:10.853Z,4.30
2023-03-07T00:52:38.136Z,3.90
2023-03-07T00:55:05.883Z,4.50
2023-03-07T00:57:34.558Z,3.93
2023-03-07T01:00:01.940Z,3.73
2023-03-07T01:02:36.867Z,4.10
2023-03-07T01:05:04.845Z,4.63
2023-03-07T01:07:32.067Z,3.70
2023-03-07T01:09:59.444Z,3.60
2023-03-07T01:12:45.911Z,3.97
2023-03-07T01:18:29.357Z,3.73
2023-03-07T01:20:56.807Z,3.90
2023-03-07T01:23:24.088Z,3.93
2023-03-07T01:25:51.580Z,3.50
2023-03-07T01:28:19.397Z,3.20
2023-03-07T01:33:35.188Z,3.20
2023-03-07T01:36:02.653Z,3.07
2023-03-07T01:38:30.868Z,3.00
2023-03-07T01:41:20.800Z,2.73
2023-03-07T01:47:14.898Z,2.70
2023-03-07T01:49:51.782Z,3.07
2023-03-07T01:52:21.383Z,3.40
2023-03-07T01:54:53.327Z,2.77
2023-03-07T01:57:25.679Z,3.60
2023-03-07T01:59:55.469Z,2.97
2023-03-07T02:02:38.712Z,2.70
2023-03-07T02:05:10.447Z,3.37
2023-03-07T02:07:39.890Z,3.73
2023-03-07T02:10:08.612Z,3.20
2023-03-07T02:15:56.300Z,3.30
2023-03-07T02:18:26.519Z,3.77
2023-03-07T02:20:57.024Z,3.30
2023-03-07T02:23:27.225Z,3.23
2023-03-07T02:25:56.964Z,3.83
2023-03-07T02:28:26.072Z,3.67
2023-03-07T02:30:59.811Z,3.47
2023-03-07T02:33:30.420Z,2.97
2023-03-07T02:36:03.689Z,4.07
2023-03-07T02:38:32.918Z,3.43
2023-03-07T02:41:20.946Z,3.50
2023-03-07T02:44:12.120Z,3.17
2023-03-07T02:46:54.264Z,3.83
2023-03-07T02:49:24.839Z,3.13
2023-03-07T02:51:52.558Z,3.50
2023-03-07T02:54:19.821Z,3.10
2023-03-07T02:56:47.753Z,3.70
2023-03-07T02:59:15.103Z,3.17
2023-03-07T03:01:42.437Z,3.83
2023-03-07T03:04:11.241Z,4.13
2023-03-07T03:06:38.730Z,3.10
2023-03-07T03:09:06.178Z,3.53
2023-03-07T03:11:55.793Z,3.77
2023-03-07T03:17:38.297Z,3.83
2023-03-07T03:20:08.403Z,4.30
2023-03-07T03:22:36.496Z,4.23
2023-03-07T03:25:06.300Z,4.10
2023-03-07T03:27:34.061Z,3.30
2023-03-07T03:30:19.808Z,4.07
2023-03-07T03:32:47.149Z,4.80
2023-03-07T03:35:18.406Z,4.40
2023-03-07T03:37:47.015Z,3.93
2023-03-07T03:40:20.505Z,4.47
2023-03-07T03:43:21.892Z,5.20
2023-03-07T03:46:08.524Z,4.13
2023-03-07T03:48:37.640Z,4.07
2023-03-07T03:51:07.869Z,4.43
2023-03-07T03:53:36.081Z,3.80
2023-03-07T03:56:04.312Z,4.47
2023-03-07T03:58:31.784Z,5.03
2023-03-07T04:00:59.158Z,3.63
2023-03-07T04:03:26.428Z,3.20
2023-03-07T04:05:54.926Z,2.90
2023-03-07T04:08:24.022Z,2.33
2023-03-07T04:10:51.895Z,2.43
2023-03-07T04:13:19.566Z,2.77
2023-03-07T04:16:09.750Z,2.40
2023-03-07T04:21:48.099Z,2.87
2023-03-07T04:24:18.520Z,2.43
2023-03-07T04:26:45.890Z,2.37
2023-03-07T04:29:13.966Z,2.57
2023-03-07T04:31:44.447Z,2.50
2023-03-07T04:36:54.998Z,3.13
2023-03-07T04:39:24.125Z,2.53
2023-03-07T04:41:52.450Z,2.13
2023-03-07T04:44:22.229Z,2.93
2023-03-07T04:46:49.846Z,2.70
2023-03-07T04:49:33.393Z,2.50
2023-03-07T04:52:38.641Z,2.20
2023-03-07T04:55:24.551Z,2.90
2023-03-07T04:57:53.732Z,2.43
2023-03-07T05:00:21.285Z,3.87
2023-03-07T05:02:49.794Z,2.30
2023-03-07T05:05:18.599Z,2.20
2023-03-07T05:07:46.323Z,2.47
2023-03-07T05:10:26.419Z,2.53
2023-03-07T05:12:55.445Z,2.27
2023-03-07T05:15:22.819Z,2.47
2023-03-07T05:17:50.193Z,2.30
2023-03-07T05:24:05.277Z,2.90
2023-03-07T05:26:33.770Z,2.57
2023-03-07T05:29:02.475Z,2.40
2023-03-07T05:31:30.154Z,2.13
2023-03-07T05:33:57.897Z,2.07
2023-03-07T05:36:25.230Z,2.30
2023-03-07T05:41:34.941Z,2.43
2023-03-07T05:44:04.527Z,1.80
2023-03-07T05:46:32.539Z,1.93
2023-03-07T05:52:46.848Z,2.20
2023-03-07T05:55:14.201Z,2.00
2023-03-07T05:57:42.049Z,2.57
2023-03-07T06:00:12.069Z,1.90
2023-03-07T06:02:45.525Z,1.70
2023-03-07T06:05:15.675Z,2.27
2023-03-07T06:10:38.287Z,1.80
2023-03-07T06:13:05.602Z,2.03
2023-03-07T06:15:34.432Z,2.73
2023-03-07T06:18:21.924Z,2.80
2023-03-07T06:21:14.101Z,1.80
2023-03-07T06:24:05.149Z,2.10
2023-03-07T06:26:32.363Z,2.00
2023-03-07T06:29:00.405Z,2.10
2023-03-07T06:31:29.421Z,2.37
2023-03-07T06:33:57.706Z,2.00
2023-03-07T06:36:25.881Z,1.80
2023-03-07T06:38:57.177Z,2.30
2023-03-07T06:41:25.021Z,2.00
2023-03-07T06:43:54.540Z,1.80
2023-03-07T06:46:27.022Z,2.17
2023-03-07T06:48:56.569Z,1.90
2023-03-07T06:51:24.615Z,2.03
2023-03-07T06:57:47.377Z,2.10
2023-03-07T07:00:15.774Z,2.00
2023-03-07T07:02:43.531Z,2.73
2023-03-07T07:05:12.313Z,2.10
2023-03-07T07:07:39.720Z,1.97
2023-03-07T07:10:07.384Z,2.00
2023-03-07T07:12:34.727Z,2.23
2023-03-07T07:15:02.038Z,2.17
2023-03-07T07:17:29.397Z,2.13
2023-03-07T07:19:57.128Z,2.07
2023-03-07T07:22:26.138Z,2.00
2023-03-07T07:24:53.539Z,1.80
2023-03-07T07:27:21.107Z,2.10
2023-03-07T07:29:48.922Z,2.00
2023-03-07T07:32:16.343Z,3.40
2023-03-07T07:34:43.926Z,2.10
2023-03-07T07:37:11.486Z,1.87
2023-03-07T07:39:40.157Z,2.10
2023-03-07T07:42:07.491Z,2.20
2023-03-07T07:44:46.015Z,2.10
2023-03-07T07:47:13.486Z,2.07
2023-03-07T07:49:40.878Z,2.33
2023-03-07T07:52:21.326Z,2.03
2023-03-07T07:54:50.341Z,1.93
2023-03-07T07:57:17.842Z,2.33
2023-03-07T07:59:45.616Z,2.07
2023-03-07T08:02:13.479Z,1.97
2023-03-07T08:04:40.795Z,1.97
2023-03-07T08:07:08.049Z,2.10
2023-03-07T08:09:35.530Z,2.20
2023-03-07T08:12:04.420Z,2.67
2023-03-07T08:14:33.571Z,2.07
2023-03-07T08:17:01.579Z,2.33
2023-03-07T08:19:28.837Z,2.00
2023-03-07T08:21:56.077Z,1.97
2023-03-07T08:24:32.112Z,2.07
2023-03-07T08:27:08.502Z,1.97
2023-03-07T08:29:35.782Z,2.00
2023-03-07T08:32:03.093Z,2.07
2023-03-07T08:34:32.677Z,2.17
2023-03-07T08:37:00.118Z,1.93
2023-03-07T08:39:27.437Z,1.90
2023-03-07T08:41:54.696Z,2.67
2023-03-07T08:44:23.353Z,2.20
2023-03-07T08:46:50.694Z,2.40
2023-03-07T08:49:18.119Z,1.73
2023-03-07T08:51:47.688Z,2.57
2023-03-07T08:54:15.158Z,2.40
2023-03-07T08:56:42.446Z,2.10
2023-03-07T08:59:09.711Z,2.30
2023-03-07T09:01:41.071Z,2.40
2023-03-07T09:04:08.730Z,2.03
2023-03-07T09:06:35.968Z,2.40
2023-03-07T09:09:03.269Z,2.00
2023-03-07T09:11:30.594Z,2.50
2023-03-07T09:17:52.531Z,2.40
2023-03-07T09:20:21.187Z,2.30
2023-03-07T09:22:48.462Z,2.07
2023-03-07T09:25:15.745Z,4.20
2023-03-07T09:27:43.047Z,1.93
2023-03-07T09:30:11.052Z,2.53
2023-03-07T09:32:38.416Z,2.60
2023-03-07T09:35:06.022Z,2.00
2023-03-07T09:37:34.586Z,2.10
2023-03-07T09:40:01.949Z,2.33
2023-03-07T09:42:33.952Z,2.40
2023-03-07T09:45:10.878Z,2.20
2023-03-07T09:48:15.839Z,1.93
2023-03-07T09:50:47.216Z,2.17
2023-03-07T09:53:18.679Z,2.50
2023-03-07T09:55:46.217Z,2.13
2023-03-07T09:58:16.247Z,2.53
2023-03-07T10:00:43.840Z,2.47
2023-03-07T10:03:15.136Z,2.33
2023-03-07T10:05:44.712Z,1.83
2023-03-07T10:08:14.071Z,1.87
2023-03-07T10:10:43.855Z,2.03
2023-03-07T10:13:24.250Z,1.80
2023-03-07T10:15:52.970Z,1.93
2023-03-07T10:18:37.940Z,2.00
2023-03-07T10:21:08.603Z,2.07
2023-03-07T10:23:41.087Z,2.87
2023-03-07T10:26:11.757Z,2.13
2023-03-07T10:28:42.446Z,1.83
2023-03-07T10:31:14.766Z,1.90
2023-03-07T10:33:44.408Z,1.80
2023-03-07T10:36:14.713Z,2.37
2023-03-07T10:38:45.022Z,2.20
2023-03-07T10:41:15.012Z,2.17
2023-03-07T10:43:43.254Z,2.00
2023-03-07T10:46:23.592Z,1.80
2023-03-07T10:48:53.523Z,1.87
2023-03-07T10:51:28.410Z,1.97
2023-03-07T10:53:56.653Z,1.90
2023-03-07T10:56:25.673Z,2.20
2023-03-07T10:59:02.675Z,2.30
2023-03-07T11:04:25.620Z,2.27
2023-03-07T11:06:53.496Z,1.87
2023-03-07T11:09:24.773Z,2.13
2023-03-07T11:11:55.317Z,2.30
2023-03-07T11:14:45.409Z,2.00
2023-03-07T11:17:29.110Z,1.60
2023-03-07T11:19:56.779Z,2.23
2023-03-07T11:22:25.582Z,2.03
2023-03-07T11:24:55.133Z,2.20
2023-03-07T11:27:25.240Z,2.03
2023-03-07T11:30:13.138Z,2.10
2023-03-07T11:32:41.698Z,2.07
2023-03-07T11:35:14.847Z,2.13
2023-03-07T11:37:45.073Z,2.77
2023-03-07T11:40:21.719Z,2.33
2023-03-07T11:42:54.365Z,1.90
2023-03-07T11:45:27.336Z,2.57
2023-03-07T11:51:46.259Z,1.70
2023-03-07T11:54:20.134Z,1.70
2023-03-07T11:56:47.939Z,2.40
2023-03-07T11:59:42.268Z,1.53
2023-03-07T12:02:21.436Z,2.10
2023-03-07T12:04:55.526Z,1.93
2023-03-07T12:07:33.140Z,2.10
2023-03-07T12:10:03.481Z,2.37
2023-03-07T12:12:37.423Z,1.77
2023-03-07T12:15:08.123Z,1.60
2023-03-07T12:17:42.057Z,1.90
2023-03-07T12:20:24.137Z,2.20
2023-03-07T12:22:57.533Z,2.00
2023-03-07T12:25:26.542Z,2.00
2023-03-07T12:27:58.388Z,1.93
2023-03-07T12:30:27.681Z,2.47
2023-03-07T12:32:56.772Z,2.10
2023-03-07T12:35:25.858Z,2.37
2023-03-07T12:37:54.575Z,2.07
2023-03-07T12:40:22.424Z,1.87
2023-03-07T12:42:54.340Z,2.33
2023-03-07T12:45:22.351Z,1.70
2023-03-07T12:47:58.464Z,1.97
2023-03-07T12:50:28.037Z,1.60
2023-03-07T12:52:57.763Z,2.10
2023-03-07T12:55:26.933Z,2.23
2023-03-07T12:57:58.678Z,2.07
2023-03-07T13:00:26.588Z,2.07
2023-03-07T13:02:57.960Z,1.83
2023-03-07T13:05:25.371Z,1.97
2023-03-07T13:07:53.020Z,2.90
2023-03-07T13:10:20.807Z,2.70
2023-03-07T13:12:48.476Z,2.30
2023-03-07T13:15:34.618Z,2.00
2023-03-07T13:18:03.370Z,2.60
2023-03-07T13:20:35.165Z,2.70
2023-03-07T13:23:12.995Z,1.50
2023-03-07T13:25:46.493Z,2.00
2023-03-07T13:28:32.440Z,1.50
2023-03-07T13:31:18.730Z,1.63
2023-03-07T13:33:47.653Z,2.03
2023-03-07T13:36:30.121Z,1.70
2023-03-07T13:38:58.829Z,1.93
2023-03-07T13:41:40.973Z,1.90
2023-03-07T13:44:26.386Z,2.30
2023-03-07T13:46:53.927Z,2.20
2023-03-07T13:49:35.602Z,2.60
2023-03-07T13:52:21.784Z,2.00
2023-03-07T13:54:50.199Z,2.73
2023-03-07T13:57:18.271Z,2.33
2023-03-07T13:59:47.922Z,1.90
2023-03-07T14:02:17.365Z,1.90
2023-03-07T14:04:47.680Z,1.90
2023-03-07T14:07:18.367Z,1.60
2023-03-07T14:09:47.079Z,1.90
2023-03-07T14:12:18.651Z,1.90
2023-03-07T14:14:51.282Z,1.77
2023-03-07T14:17:25.617Z,2.20
2023-03-07T14:19:57.680Z,2.20
2023-03-07T14:22:31.196Z,2.57
2023-03-07T14:25:05.238Z,1.80
2023-03-07T14:27:32.562Z,2.10
2023-03-07T14:29:59.760Z,1.93
2023-03-07T14:32:28.663Z,2.70
2023-03-07T14:34:57.611Z,1.97
2023-03-07T14:37:25.493Z,1.97
2023-03-07T14:40:02.373Z,2.10
2023-03-07T14:42:32.220Z,1.87
2023-03-07T14:45:17.033Z,1.97
2023-03-07T14:47:59.176Z,2.40
2023-03-07T14:50:28.930Z,2.00
2023-03-07T14:52:58.675Z,1.73
2023-03-07T14:55:27.866Z,1.80
2023-03-07T14:57:55.605Z,1.77
2023-03-07T15:00:24.727Z,2.27
2023-03-07T15:02:52.978Z,2.10
2023-03-07T15:05:21.379Z,1.90
2023-03-07T15:07:50.281Z,2.00
2023-03-07T15:10:21.918Z,1.73
2023-03-07T15:12:50.885Z,2.17
2023-03-07T15:15:24.213Z,2.10
2023-03-07T15:17:52.478Z,2.53
2023-03-07T15:20:20.882Z,2.63
2023-03-07T15:22:49.652Z,2.20
2023-03-07T15:25:20.898Z,2.00
2023-03-07T15:27:48.466Z,2.30
2023-03-07T15:30:23.737Z,2.50
2023-03-07T15:33:03.445Z,2.87
2023-03-07T15:35:30.748Z,2.17
2023-03-07T15:38:01.005Z,2.20
2023-03-07T15:40:30.562Z,1.87
2023-03-07T15:42:59.028Z,1.90
2023-03-07T15:45:31.296Z,2.07
2023-03-07T15:48:00.775Z,2.23
2023-03-07T15:50:29.663Z,2.20
2023-03-07T15:53:01.294Z,2.00
2023-03-07T15:55:28.745Z,1.67
2023-03-07T15:57:57.725Z,2.37
2023-03-07T16:00:28.601Z,2.10
2023-03-07T16:03:14.015Z,1.77
2023-03-07T16:05:41.443Z,2.20
2023-03-07T16:08:14.637Z,1.87
2023-03-07T16:10:45.609Z,1.80
2023-03-07T16:13:16.344Z,2.37
2023-03-07T16:15:43.680Z,1.93
2023-03-07T16:18:12.217Z,1.77
2023-03-07T16:20:39.596Z,1.97
2023-03-07T16:23:06.986Z,1.60
2023-03-07T16:25:35.767Z,2.10
2023-03-07T16:28:03.083Z,1.90
2023-03-07T16:30:32.934Z,2.00
2023-03-07T16:33:00.199Z,2.10
2023-03-07T16:35:28.606Z,1.97
2023-03-07T16:37:56.309Z,2.30
2023-03-07T16:40:23.629Z,1.93
2023-03-07T16:42:52.384Z,2.00
2023-03-07T16:45:21.879Z,1.97
2023-03-07T16:47:51.294Z,1.90
2023-03-07T16:50:19.358Z,2.33
2023-03-07T16:52:46.590Z,1.93
2023-03-07T16:55:14.467Z,1.80
2023-03-07T16:57:42.458Z,1.70
2023-03-07T17:00:14.995Z,1.77
2023-03-07T17:02:42.598Z,2.20
2023-03-07T17:05:15.878Z,1.57
2023-03-07T17:07:43.211Z,1.90
2023-03-07T17:10:11.252Z,2.10
2023-03-07T17:12:38.516Z,1.80
2023-03-07T17:15:06.950Z,2.10
2023-03-07T17:17:36.676Z,1.70
2023-03-07T17:20:04.812Z,2.07
2023-03-07T17:22:32.214Z,2.00
2023-03-07T17:24:59.877Z,1.73
2023-03-07T17:27:27.297Z,1.83
2023-03-07T17:29:54.951Z,2.13
2023-03-07T17:32:22.317Z,2.20
2023-03-07T17:34:50.990Z,2.00
2023-03-07T17:37:18.588Z,1.73
2023-03-07T17:39:45.989Z,1.77
2023-03-07T17:42:13.278Z,1.60
2023-03-07T17:44:40.556Z,2.00
2023-03-07T17:47:08.012Z,2.13
2023-03-07T17:49:35.773Z,2.20
2023-03-07T17:52:05.429Z,2.10
2023-03-07T17:54:33.397Z,2.10
2023-03-07T17:57:01.120Z,1.97
2023-03-07T17:59:28.621Z,2.10
2023-03-07T18:01:55.931Z,2.10
2023-03-07T18:04:23.245Z,1.80
2023-03-07T18:06:50.588Z,1.97
2023-03-07T18:09:19.245Z,1.90
2023-03-07T18:11:46.499Z,1.80
2023-03-07T18:14:13.768Z,1.93
2023-03-07T18:16:41.012Z,2.07
2023-03-07T18:19:14.207Z,2.00
2023-03-07T18:21:44.881Z,1.90
2023-03-07T18:24:20.386Z,1.90
2023-03-07T18:26:49.771Z,2.30
2023-03-07T18:29:17.081Z,2.47
2023-03-07T18:31:44.486Z,2.37
2023-03-07T18:34:11.813Z,2.00
2023-03-07T18:36:40.678Z,2.40
2023-03-07T18:39:08.021Z,1.70
2023-03-07T18:41:36.954Z,2.35
2023-03-07T18:44:04.556Z,2.20
2023-03-07T18:46:31.753Z,2.27
2023-03-07T18:48:59.465Z,2.07
2023-03-07T18:51:27.174Z,2.83
2023-03-07T18:53:54.535Z,1.80
2023-03-07T18:56:22.031Z,2.13
2023-03-07T18:58:52.905Z,2.30
2023-03-07T19:01:20.856Z,2.00
2023-03-07T19:03:49.195Z,2.20
2023-03-07T19:06:17.282Z,1.77
2023-03-07T19:08:44.666Z,1.83
2023-03-07T19:11:13.084Z,1.80
2023-03-07T19:13:40.391Z,2.47
2023-03-07T19:16:10.356Z,1.70
2023-03-07T19:18:37.960Z,2.00
2023-03-07T19:21:06.175Z,2.20
2023-03-07T19:23:33.413Z,2.00
2023-03-07T19:26:01.485Z,2.50
2023-03-07T19:28:28.772Z,2.50
2023-03-07T19:30:55.986Z,2.10
2023-03-07T19:33:25.204Z,2.80
2023-03-07T19:36:01.680Z,2.20
2023-03-07T19:38:28.968Z,2.27
2023-03-07T19:40:56.224Z,2.17
2023-03-07T19:43:23.486Z,2.60
2023-03-07T19:45:50.783Z,2.60
2023-03-07T19:48:18.180Z,2.20
2023-03-07T19:50:46.743Z,2.07
2023-03-07T19:53:13.997Z,1.93
2023-03-07T19:55:41.264Z,5.87
2023-03-07T19:58:08.573Z,2.40
2023-03-07T20:00:35.986Z,2.43
2023-03-07T20:03:03.411Z,2.00
2023-03-07T20:05:30.814Z,2.83
2023-03-07T20:07:59.504Z,2.10
2023-03-07T20:10:26.847Z,2.30
2023-03-07T20:12:54.139Z,3.33
2023-03-07T20:15:21.520Z,2.70
2023-03-07T20:17:48.738Z,2.57
2023-03-07T20:20:16.100Z,2.20
2023-03-07T20:22:43.349Z,2.67
2023-03-07T20:25:12.233Z,2.97
2023-03-07T20:27:39.572Z,2.47
2023-03-07T20:30:07.390Z,2.40
2023-03-07T20:32:34.887Z,2.40
2023-03-07T20:35:02.217Z,2.00
2023-03-07T20:37:29.845Z,2.60
2023-03-07T20:39:57.150Z,2.20
2023-03-07T20:42:25.745Z,2.53
2023-03-07T20:44:52.996Z,2.03
2023-03-07T20:47:20.332Z,2.43
2023-03-07T20:49:47.523Z,2.37
2023-03-07T20:52:14.773Z,1.97
2023-03-07T20:54:42.136Z,2.47
2023-03-07T20:57:09.450Z,2.83
2023-03-07T20:59:38.396Z,2.53
2023-03-07T21:02:05.778Z,2.47
2023-03-07T21:04:33.316Z,2.20
2023-03-07T21:07:00.606Z,2.50
2023-03-07T21:09:27.933Z,2.27
2023-03-07T21:11:55.208Z,2.50
2023-03-07T21:14:22.456Z,2.17
2023-03-07T21:16:51.278Z,2.77
2023-03-07T21:19:18.675Z,2.80
2023-03-07T21:21:46.219Z,2.63
2023-03-07T21:24:13.581Z,2.97
2023-03-07T21:26:40.918Z,3.27
2023-03-07T21:29:08.184Z,2.60
2023-03-07T21:31:36.660Z,3.20
2023-03-07T21:34:06.811Z,3.70
2023-03-07T21:36:34.240Z,3.30
2023-03-07T21:39:01.872Z,3.17
2023-03-07T21:41:29.210Z,3.53
2023-03-07T21:43:56.975Z,3.57
2023-03-07T21:46:25.086Z,3.10
2023-03-07T21:48:52.419Z,3.43
2023-03-07T21:51:21.668Z,3.37
2023-03-07T21:53:48.945Z,3.40
2023-03-07T21:56:17.690Z,3.93
2023-03-07T21:58:48.009Z,3.53
2023-03-07T22:01:16.159Z,3.50
2023-03-07T22:03:43.912Z,3.67
2023-03-07T22:06:12.552Z,3.67
2023-03-07T22:08:41.742Z,3.80
2023-03-07T22:11:09.794Z,3.60
2023-03-07T22:13:37.678Z,4.23
2023-03-07T22:16:06.250Z,3.50
2023-03-07T22:18:33.576Z,3.37
2023-03-07T22:21:00.911Z,3.90
2023-03-07T22:23:28.143Z,3.67
2023-03-07T22:25:56.989Z,3.63
2023-03-07T22:28:24.284Z,3.63
2023-03-07T22:30:51.824Z,3.37
2023-03-07T22:33:19.102Z,3.50
2023-03-07T22:36:08.046Z,3.60
2023-03-07T22:38:35.930Z,3.43
2023-03-07T22:41:06.064Z,3.70
2023-03-07T22:43:34.054Z,3.67
2023-03-07T22:46:01.329Z,3.43
2023-03-07T22:48:29.150Z,3.17
2023-03-07T22:50:56.521Z,3.33
2023-03-07T22:53:26.709Z,3.00
2023-03-07T22:55:54.389Z,3.57
2023-03-07T22:58:22.975Z,3.17
2023-03-07T23:00:50.223Z,3.63
2023-03-07T23:03:17.770Z,3.27
2023-03-07T23:05:45.009Z,3.67
2023-03-07T23:08:12.308Z,3.20
2023-03-07T23:10:39.882Z,3.37
2023-03-07T23:13:07.237Z,3.47
2023-03-07T23:15:39.533Z,2.63
2023-03-07T23:18:06.897Z,3.40
2023-03-07T23:20:34.479Z,3.17
2023-03-07T23:23:01.778Z,2.90
2023-03-07T23:25:29.395Z,2.70
2023-03-07T23:27:58.228Z,3.30
2023-03-07T23:30:25.433Z,2.70
2023-03-07T23:32:54.755Z,2.77
2023-03-07T23:35:21.998Z,2.67
2023-03-07T23:37:49.358Z,2.67
2023-03-07T23:40:16.781Z,2.90
2023-03-07T23:42:44.218Z,3.13
2023-03-07T23:45:11.775Z,3.40
2023-03-07T23:47:39.068Z,2.60
2023-03-07T23:50:09.271Z,2.90
2023-03-07T23:59:21.721Z,2.63
